sensor_id;sensor_type;location;lat;lon;timestamp;P1;durP1;ratioP1;P2;durP2;ratioP2
2712;SDS011;1366;47.988;7.856;2023-01-13T05:01:55;0.87;;;0.87;;
2712;SDS011;1366;47.988;7.856;2023-01-13T05:04:21;0.97;;;0.90;;
2712;SDS011;1366;47.988;7.856;2023-01-13T05:06:47;0.83;;;0.83;;
2712;SDS011;1366;47.988;7.856;2023-01-13T05:09:13;1.03;;;0.87;;
2712;SDS011;1366;47.988;7.856;2023-01-13T05:11:40;0.80;;;0.80;;
2712;SDS011;1366;47.988;7.856;2023-01-13T05:14:24;1.47;;;0.83;;
2712;SDS011;1366;47.988;7.856;2023-01-13T05:17:10;1.00;;;0.80;;
2712;SDS011;1366;47.988;7.856;2023-01-13T05:19:37;0.90;;;0.83;;
2712;SDS011;1366;47.988;7.856;2023-01-13T05:22:04;1.30;;;0.90;;
2712;SDS011;1366;47.988;7.856;2023-01-13T05:24:49;0.90;;;0.90;;
2712;SDS011;1366;47.988;7.856;2023-01-13T05:27:34;0.80;;;0.80;;
2712;SDS011;1366;47.988;7.856;2023-01-13T05:30:00;0.80;;;0.80;;
2712;SDS011;1366;47.988;7.856;2023-01-13T05:32:26;0.60;;;0.60;;
2712;SDS011;1366;47.988;7.856;2023-01-13T05:34:53;0.80;;;0.80;;
2712;SDS011;1366;47.988;7.856;2023-01-13T05:37:19;2.33;;;0.80;;
2712;SDS011;1366;47.988;7.856;2023-01-13T05:39:45;1.13;;;0.80;;
2712;SDS011;1366;47.988;7.856;2023-01-13T05:42:30;0.90;;;0.90;;
2712;SDS011;1366;47.988;7.856;2023-01-13T05:45:15;0.80;;;0.80;;
2712;SDS011;1366;47.988;7.856;2023-01-13T05:47:41;0.70;;;0.70;;
2712;SDS011;1366;47.988;7.856;2023-01-13T05:50:07;3.40;;;1.10;;
2712;SDS011;1366;47.988;7.856;2023-01-13T05:52:33;0.80;;;0.80;;
2712;SDS011;1366;47.988;7.856;2023-01-13T05:54:59;0.70;;;0.70;;
2712;SDS011;1366;47.988;7.856;2023-01-13T05:57:25;1.03;;;0.80;;
2712;SDS011;1366;47.988;7.856;2023-01-13T05:59:51;0.90;;;0.90;;
2712;SDS011;1366;47.988;7.856;2023-01-13T06:02:17;1.87;;;0.97;;
2712;SDS011;1366;47.988;7.856;2023-01-13T06:04:44;2.40;;;1.37;;
2712;SDS011;1366;47.988;7.856;2023-01-13T06:07:10;1.17;;;0.80;;
2712;SDS011;1366;47.988;7.856;2023-01-13T06:09:36;0.80;;;0.80;;
2712;SDS011;1366;47.988;7.856;2023-01-13T06:12:02;0.80;;;0.80;;
2712;SDS011;1366;47.988;7.856;2023-01-13T06:14:28;0.80;;;0.80;;
2712;SDS011;1366;47.988;7.856;2023-01-13T06:17:07;0.90;;;0.90;;
2712;SDS011;1366;47.988;7.856;2023-01-13T06:19:34;0.90;;;0.90;;
2712;SDS011;1366;47.988;7.856;2023-01-13T06:22:10;1.83;;;0.93;;
2712;SDS011;1366;47.988;7.856;2023-01-13T06:24:38;0.90;;;0.90;;
2712;SDS011;1366;47.988;7.856;2023-01-13T06:27:04;0.80;;;0.80;;
2712;SDS011;1366;47.988;7.856;2023-01-13T06:29:31;0.80;;;0.80;;
2712;SDS011;1366;47.988;7.856;2023-01-13T06:31:58;1.00;;;1.00;;
2712;SDS011;1366;47.988;7.856;2023-01-13T06:34:25;1.10;;;0.80;;
2712;SDS011;1366;47.988;7.856;2023-01-13T06:36:51;0.90;;;0.90;;
2712;SDS011;1366;47.988;7.856;2023-01-13T06:39:19;1.70;;;0.90;;
2712;SDS011;1366;47.988;7.856;2023-01-13T06:41:47;1.30;;;0.90;;
2712;SDS011;1366;47.988;7.856;2023-01-13T06:44:33;0.90;;;0.90;;
2712;SDS011;1366;47.988;7.856;2023-01-13T06:46:59;0.80;;;0.80;;
2712;SDS011;1366;47.988;7.856;2023-01-13T06:49:25;0.70;;;0.70;;
2712;SDS011;1366;47.988;7.856;2023-01-13T06:51:51;0.90;;;0.90;;
2712;SDS011;1366;47.988;7.856;2023-01-13T06:54:17;1.43;;;0.90;;
2712;SDS011;1366;47.988;7.856;2023-01-13T06:56:43;0.77;;;0.77;;
2712;SDS011;1366;47.988;7.856;2023-01-13T06:59:09;2.10;;;0.80;;
2712;SDS011;1366;47.988;7.856;2023-01-13T07:01:35;0.83;;;0.80;;
2712;SDS011;1366;47.988;7.856;2023-01-13T07:04:01;0.80;;;0.80;;
2712;SDS011;1366;47.988;7.856;2023-01-13T07:06:27;1.00;;;0.80;;
2712;SDS011;1366;47.988;7.856;2023-01-13T07:08:53;0.80;;;0.80;;
2712;SDS011;1366;47.988;7.856;2023-01-13T07:11:20;1.10;;;0.80;;
2712;SDS011;1366;47.988;7.856;2023-01-13T07:13:46;1.07;;;1.07;;
2712;SDS011;1366;47.988;7.856;2023-01-13T07:16:30;0.80;;;0.80;;
2712;SDS011;1366;47.988;7.856;2023-01-13T07:18:57;1.03;;;1.03;;
2712;SDS011;1366;47.988;7.856;2023-01-13T07:21:23;0.90;;;0.90;;
2712;SDS011;1366;47.988;7.856;2023-01-13T07:23:49;1.00;;;0.90;;
2712;SDS011;1366;47.988;7.856;2023-01-13T07:26:15;1.10;;;1.00;;
2712;SDS011;1366;47.988;7.856;2023-01-13T07:28:41;1.63;;;0.97;;
2712;SDS011;1366;47.988;7.856;2023-01-13T07:31:14;1.17;;;1.10;;
2712;SDS011;1366;47.988;7.856;2023-01-13T07:33:40;0.80;;;0.80;;
2712;SDS011;1366;47.988;7.856;2023-01-13T07:36:07;0.80;;;0.80;;
2712;SDS011;1366;47.988;7.856;2023-01-13T07:38:33;0.77;;;0.77;;
2712;SDS011;1366;47.988;7.856;2023-01-13T07:41:00;1.67;;;0.97;;
2712;SDS011;1366;47.988;7.856;2023-01-13T07:43:45;0.90;;;0.90;;
2712;SDS011;1366;47.988;7.856;2023-01-13T07:46:11;0.80;;;0.80;;
2712;SDS011;1366;47.988;7.856;2023-01-13T07:48:37;1.70;;;0.90;;
2712;SDS011;1366;47.988;7.856;2023-01-13T07:51:04;1.03;;;0.90;;
2712;SDS011;1366;47.988;7.856;2023-01-13T07:53:30;1.17;;;1.10;;
2712;SDS011;1366;47.988;7.856;2023-01-13T07:55:56;1.23;;;0.90;;
2712;SDS011;1366;47.988;7.856;2023-01-13T07:58:23;1.43;;;1.00;;
2712;SDS011;1366;47.988;7.856;2023-01-13T08:00:49;1.20;;;0.93;;
2712;SDS011;1366;47.988;7.856;2023-01-13T08:03:15;0.90;;;0.90;;
2712;SDS011;1366;47.988;7.856;2023-01-13T08:05:41;1.20;;;1.10;;
2712;SDS011;1366;47.988;7.856;2023-01-13T08:08:07;0.90;;;0.90;;
2712;SDS011;1366;47.988;7.856;2023-01-13T08:10:34;3.57;;;1.07;;
2712;SDS011;1366;47.988;7.856;2023-01-13T08:13:06;1.20;;;1.00;;
2712;SDS011;1366;47.988;7.856;2023-01-13T08:15:42;0.97;;;0.97;;
2712;SDS011;1366;47.988;7.856;2023-01-13T08:18:09;0.87;;;0.87;;
2712;SDS011;1366;47.988;7.856;2023-01-13T08:20:35;1.20;;;1.00;;
2712;SDS011;1366;47.988;7.856;2023-01-13T08:23:01;0.97;;;0.97;;
2712;SDS011;1366;47.988;7.856;2023-01-13T08:25:28;1.07;;;0.97;;
2712;SDS011;1366;47.988;7.856;2023-01-13T08:27:54;1.77;;;0.90;;
2712;SDS011;1366;47.988;7.856;2023-01-13T08:30:20;0.97;;;0.93;;
2712;SDS011;1366;47.988;7.856;2023-01-13T08:32:47;1.73;;;1.10;;
2712;SDS011;1366;47.988;7.856;2023-01-13T08:35:13;0.90;;;0.90;;
2712;SDS011;1366;47.988;7.856;2023-01-13T08:37:39;1.00;;;0.90;;
2712;SDS011;1366;47.988;7.856;2023-01-13T08:40:06;0.93;;;0.90;;
2712;SDS011;1366;47.988;7.856;2023-01-13T08:42:32;1.10;;;1.00;;
2712;SDS011;1366;47.988;7.856;2023-01-13T08:44:59;0.90;;;0.90;;
2712;SDS011;1366;47.988;7.856;2023-01-13T08:47:27;1.30;;;1.00;;
2712;SDS011;1366;47.988;7.856;2023-01-13T08:49:53;1.90;;;1.00;;
2712;SDS011;1366;47.988;7.856;2023-01-13T08:52:19;2.97;;;1.10;;
2712;SDS011;1366;47.988;7.856;2023-01-13T08:54:45;2.50;;;0.90;;
2712;SDS011;1366;47.988;7.856;2023-01-13T08:57:12;0.83;;;0.80;;
2712;SDS011;1366;47.988;7.856;2023-01-13T08:59:39;1.00;;;1.00;;
2712;SDS011;1366;47.988;7.856;2023-01-13T09:02:17;1.83;;;1.10;;
2712;SDS011;1366;47.988;7.856;2023-01-13T09:04:44;1.00;;;1.00;;
2712;SDS011;1366;47.988;7.856;2023-01-13T09:07:11;1.20;;;1.10;;
2712;SDS011;1366;47.988;7.856;2023-01-13T09:09:37;1.20;;;1.10;;
2712;SDS011;1366;47.988;7.856;2023-01-13T09:12:03;1.00;;;1.00;;
2712;SDS011;1366;47.988;7.856;2023-01-13T09:14:48;1.17;;;1.07;;
2712;SDS011;1366;47.988;7.856;2023-01-13T09:17:14;1.00;;;1.00;;
2712;SDS011;1366;47.988;7.856;2023-01-13T09:19:40;0.80;;;0.80;;
2712;SDS011;1366;47.988;7.856;2023-01-13T09:22:08;1.00;;;1.00;;
2712;SDS011;1366;47.988;7.856;2023-01-13T09:24:35;1.27;;;1.00;;
2712;SDS011;1366;47.988;7.856;2023-01-13T09:27:01;0.87;;;0.87;;
2712;SDS011;1366;47.988;7.856;2023-01-13T09:29:27;1.30;;;1.10;;
2712;SDS011;1366;47.988;7.856;2023-01-13T09:31:53;1.00;;;1.00;;
2712;SDS011;1366;47.988;7.856;2023-01-13T09:34:20;1.43;;;0.83;;
2712;SDS011;1366;47.988;7.856;2023-01-13T09:37:05;1.13;;;1.03;;
2712;SDS011;1366;47.988;7.856;2023-01-13T09:39:32;0.80;;;0.80;;
2712;SDS011;1366;47.988;7.856;2023-01-13T09:42:01;1.30;;;1.20;;
2712;SDS011;1366;47.988;7.856;2023-01-13T09:44:48;1.93;;;1.20;;
2712;SDS011;1366;47.988;7.856;2023-01-13T09:47:20;1.03;;;1.00;;
2712;SDS011;1366;47.988;7.856;2023-01-13T09:49:47;1.00;;;1.00;;
2712;SDS011;1366;47.988;7.856;2023-01-13T09:52:22;1.03;;;0.90;;
2712;SDS011;1366;47.988;7.856;2023-01-13T09:55:03;0.93;;;0.93;;
2712;SDS011;1366;47.988;7.856;2023-01-13T09:57:35;2.30;;;1.20;;
2712;SDS011;1366;47.988;7.856;2023-01-13T10:00:02;1.30;;;1.20;;
2712;SDS011;1366;47.988;7.856;2023-01-13T10:02:35;0.90;;;0.90;;
2712;SDS011;1366;47.988;7.856;2023-01-13T10:07:51;1.13;;;1.03;;
2712;SDS011;1366;47.988;7.856;2023-01-13T10:10:31;3.83;;;2.33;;
2712;SDS011;1366;47.988;7.856;2023-01-13T10:12:59;1.40;;;1.30;;
2712;SDS011;1366;47.988;7.856;2023-01-13T10:15:38;1.90;;;1.70;;
2712;SDS011;1366;47.988;7.856;2023-01-13T10:28:39;1.87;;;1.60;;
2712;SDS011;1366;47.988;7.856;2023-01-13T10:31:09;3.63;;;1.80;;
2712;SDS011;1366;47.988;7.856;2023-01-13T10:33:36;5.57;;;2.43;;
2712;SDS011;1366;47.988;7.856;2023-01-13T10:36:03;3.13;;;1.93;;
2712;SDS011;1366;47.988;7.856;2023-01-13T10:38:47;4.73;;;2.03;;
2712;SDS011;1366;47.988;7.856;2023-01-13T10:46:25;5.40;;;1.87;;
2712;SDS011;1366;47.988;7.856;2023-01-13T10:48:57;4.20;;;1.30;;
2712;SDS011;1366;47.988;7.856;2023-01-13T10:51:25;2.60;;;2.10;;
2712;SDS011;1366;47.988;7.856;2023-01-13T10:56:18;2.17;;;1.33;;
2712;SDS011;1366;47.988;7.856;2023-01-13T10:58:44;3.53;;;1.47;;
2712;SDS011;1366;47.988;7.856;2023-01-13T11:01:18;2.00;;;1.43;;
2712;SDS011;1366;47.988;7.856;2023-01-13T11:03:44;3.00;;;1.60;;
2712;SDS011;1366;47.988;7.856;2023-01-13T11:06:28;2.70;;;1.73;;
2712;SDS011;1366;47.988;7.856;2023-01-13T11:08:55;2.80;;;1.63;;
2712;SDS011;1366;47.988;7.856;2023-01-13T11:11:35;2.00;;;1.67;;
2712;SDS011;1366;47.988;7.856;2023-01-13T11:17:02;4.50;;;1.50;;
2712;SDS011;1366;47.988;7.856;2023-01-13T11:19:33;1.10;;;1.10;;
2712;SDS011;1366;47.988;7.856;2023-01-13T11:22:06;1.90;;;1.20;;
2712;SDS011;1366;47.988;7.856;2023-01-13T11:29:58;3.40;;;1.20;;
2712;SDS011;1366;47.988;7.856;2023-01-13T11:32:26;3.10;;;1.77;;
2712;SDS011;1366;47.988;7.856;2023-01-13T11:34:54;1.27;;;1.17;;
2712;SDS011;1366;47.988;7.856;2023-01-13T11:37:27;1.30;;;1.00;;
2712;SDS011;1366;47.988;7.856;2023-01-13T11:42:53;1.40;;;1.30;;
2712;SDS011;1366;47.988;7.856;2023-01-13T11:45:26;1.37;;;1.23;;
2712;SDS011;1366;47.988;7.856;2023-01-13T11:47:56;1.20;;;1.20;;
2712;SDS011;1366;47.988;7.856;2023-01-13T11:55:45;2.33;;;1.13;;
2712;SDS011;1366;47.988;7.856;2023-01-13T11:58:25;1.37;;;1.20;;
2712;SDS011;1366;47.988;7.856;2023-01-13T12:03:26;1.83;;;1.10;;
2712;SDS011;1366;47.988;7.856;2023-01-13T12:08:30;1.83;;;1.40;;
2712;SDS011;1366;47.988;7.856;2023-01-13T12:11:04;1.23;;;1.13;;
2712;SDS011;1366;47.988;7.856;2023-01-13T12:16:32;1.33;;;1.23;;
2712;SDS011;1366;47.988;7.856;2023-01-13T12:21:46;2.63;;;1.40;;
2712;SDS011;1366;47.988;7.856;2023-01-13T12:26:56;1.33;;;1.23;;
2712;SDS011;1366;47.988;7.856;2023-01-13T12:29:33;1.80;;;1.70;;
2712;SDS011;1366;47.988;7.856;2023-01-13T12:32:09;1.67;;;1.27;;
2712;SDS011;1366;47.988;7.856;2023-01-13T12:37:12;1.90;;;1.53;;
2712;SDS011;1366;47.988;7.856;2023-01-13T12:42:20;2.63;;;1.70;;
2712;SDS011;1366;47.988;7.856;2023-01-13T12:47:38;2.57;;;1.57;;
2712;SDS011;1366;47.988;7.856;2023-01-13T12:52:58;2.50;;;1.53;;
2712;SDS011;1366;47.988;7.856;2023-01-13T12:55:25;1.87;;;1.70;;
2712;SDS011;1366;47.988;7.856;2023-01-13T13:00:21;1.30;;;1.20;;
2712;SDS011;1366;47.988;7.856;2023-01-13T13:08:21;2.63;;;1.60;;
2712;SDS011;1366;47.988;7.856;2023-01-13T13:13:53;3.10;;;1.77;;
2712;SDS011;1366;47.988;7.856;2023-01-13T13:17:23;2.60;;;1.60;;
2712;SDS011;1366;47.988;7.856;2023-01-13T13:24:29;1.77;;;1.67;;
2712;SDS011;1366;47.988;7.856;2023-01-13T13:26:55;2.63;;;1.50;;
2712;SDS011;1366;47.988;7.856;2023-01-13T13:29:23;2.70;;;1.97;;
2712;SDS011;1366;47.988;7.856;2023-01-13T13:34:29;1.70;;;1.60;;
2712;SDS011;1366;47.988;7.856;2023-01-13T13:39:28;2.20;;;2.10;;
2712;SDS011;1366;47.988;7.856;2023-01-13T13:45:03;1.90;;;1.77;;
2712;SDS011;1366;47.988;7.856;2023-01-13T13:47:50;1.60;;;1.30;;
2712;SDS011;1366;47.988;7.856;2023-01-13T13:50:17;3.57;;;1.70;;
2712;SDS011;1366;47.988;7.856;2023-01-13T13:55:19;1.63;;;1.43;;
2712;SDS011;1366;47.988;7.856;2023-01-13T13:57:46;2.80;;;1.57;;
2712;SDS011;1366;47.988;7.856;2023-01-13T14:02:39;1.80;;;1.40;;
2712;SDS011;1366;47.988;7.856;2023-01-13T14:05:15;1.80;;;1.47;;
2712;SDS011;1366;47.988;7.856;2023-01-13T14:07:45;2.00;;;1.33;;
2712;SDS011;1366;47.988;7.856;2023-01-13T14:10:13;1.53;;;1.43;;
2712;SDS011;1366;47.988;7.856;2023-01-13T14:12:41;3.20;;;2.30;;
2712;SDS011;1366;47.988;7.856;2023-01-13T14:15:21;2.17;;;1.70;;
2712;SDS011;1366;47.988;7.856;2023-01-13T14:17:48;2.07;;;1.40;;
2712;SDS011;1366;47.988;7.856;2023-01-13T14:20:16;1.50;;;1.40;;
2712;SDS011;1366;47.988;7.856;2023-01-13T14:22:46;5.20;;;1.50;;
2712;SDS011;1366;47.988;7.856;2023-01-13T14:30:39;1.73;;;1.23;;
2712;SDS011;1366;47.988;7.856;2023-01-13T14:33:07;1.80;;;1.30;;
2712;SDS011;1366;47.988;7.856;2023-01-13T14:35:38;1.57;;;1.47;;
2712;SDS011;1366;47.988;7.856;2023-01-13T14:38:04;2.20;;;1.13;;
2712;SDS011;1366;47.988;7.856;2023-01-13T14:43:07;1.37;;;1.30;;
2712;SDS011;1366;47.988;7.856;2023-01-13T14:45:35;2.33;;;1.30;;
2712;SDS011;1366;47.988;7.856;2023-01-13T14:48:06;2.13;;;1.40;;
2712;SDS011;1366;47.988;7.856;2023-01-13T14:50:33;1.40;;;1.30;;
2712;SDS011;1366;47.988;7.856;2023-01-13T14:52:59;1.97;;;1.40;;
2712;SDS011;1366;47.988;7.856;2023-01-13T14:57:51;1.80;;;1.63;;
2712;SDS011;1366;47.988;7.856;2023-01-13T15:00:19;2.50;;;1.23;;
2712;SDS011;1366;47.988;7.856;2023-01-13T15:08:27;1.27;;;1.17;;
2712;SDS011;1366;47.988;7.856;2023-01-13T15:10:56;1.93;;;1.30;;
2712;SDS011;1366;47.988;7.856;2023-01-13T15:15:51;1.30;;;1.20;;
2712;SDS011;1366;47.988;7.856;2023-01-13T15:18:17;1.23;;;1.10;;
2712;SDS011;1366;47.988;7.856;2023-01-13T15:20:43;1.90;;;1.30;;
2712;SDS011;1366;47.988;7.856;2023-01-13T15:23:10;1.97;;;1.60;;
2712;SDS011;1366;47.988;7.856;2023-01-13T15:25:37;1.77;;;1.67;;
2712;SDS011;1366;47.988;7.856;2023-01-13T15:28:04;2.47;;;1.97;;
2712;SDS011;1366;47.988;7.856;2023-01-13T15:30:30;4.30;;;1.80;;
2712;SDS011;1366;47.988;7.856;2023-01-13T15:32:57;2.17;;;1.63;;
2712;SDS011;1366;47.988;7.856;2023-01-13T15:35:24;1.77;;;1.40;;
2712;SDS011;1366;47.988;7.856;2023-01-13T15:37:50;3.23;;;1.43;;
2712;SDS011;1366;47.988;7.856;2023-01-13T15:40:20;1.30;;;1.20;;
2712;SDS011;1366;47.988;7.856;2023-01-13T15:42:47;1.70;;;1.20;;
2712;SDS011;1366;47.988;7.856;2023-01-13T15:45:33;3.07;;;1.83;;
2712;SDS011;1366;47.988;7.856;2023-01-13T15:48:21;1.50;;;1.40;;
2712;SDS011;1366;47.988;7.856;2023-01-13T15:50:48;2.30;;;2.07;;
2712;SDS011;1366;47.988;7.856;2023-01-13T15:53:14;1.70;;;1.60;;
2712;SDS011;1366;47.988;7.856;2023-01-13T15:55:41;1.73;;;1.40;;
2712;SDS011;1366;47.988;7.856;2023-01-13T15:58:11;2.53;;;1.70;;
2712;SDS011;1366;47.988;7.856;2023-01-13T16:00:37;2.87;;;1.60;;
2712;SDS011;1366;47.988;7.856;2023-01-13T16:03:04;3.03;;;1.70;;
2712;SDS011;1366;47.988;7.856;2023-01-13T16:05:30;2.10;;;1.90;;
2712;SDS011;1366;47.988;7.856;2023-01-13T16:07:56;1.60;;;1.50;;
2712;SDS011;1366;47.988;7.856;2023-01-13T16:10:23;2.23;;;1.40;;
2712;SDS011;1366;47.988;7.856;2023-01-13T16:12:50;1.60;;;1.30;;
2712;SDS011;1366;47.988;7.856;2023-01-13T16:15:16;2.03;;;1.57;;
2712;SDS011;1366;47.988;7.856;2023-01-13T16:17:43;2.90;;;1.53;;
2712;SDS011;1366;47.988;7.856;2023-01-13T16:20:13;5.13;;;1.20;;
2712;SDS011;1366;47.988;7.856;2023-01-13T16:22:39;4.10;;;2.57;;
2712;SDS011;1366;47.988;7.856;2023-01-13T16:25:05;3.93;;;1.90;;
2712;SDS011;1366;47.988;7.856;2023-01-13T16:27:32;1.97;;;1.50;;
2712;SDS011;1366;47.988;7.856;2023-01-13T16:29:58;1.40;;;1.30;;
2712;SDS011;1366;47.988;7.856;2023-01-13T16:32:25;2.10;;;1.50;;
2712;SDS011;1366;47.988;7.856;2023-01-13T16:34:51;1.53;;;1.43;;
2712;SDS011;1366;47.988;7.856;2023-01-13T16:37:21;1.67;;;1.57;;
2712;SDS011;1366;47.988;7.856;2023-01-13T16:39:47;3.70;;;1.50;;
2712;SDS011;1366;47.988;7.856;2023-01-13T16:42:14;2.43;;;2.23;;
2712;SDS011;1366;47.988;7.856;2023-01-13T16:44:40;1.40;;;1.30;;
2712;SDS011;1366;47.988;7.856;2023-01-13T16:47:16;1.43;;;1.33;;
2712;SDS011;1366;47.988;7.856;2023-01-13T16:49:42;2.30;;;1.50;;
2712;SDS011;1366;47.988;7.856;2023-01-13T16:52:09;2.70;;;1.40;;
2712;SDS011;1366;47.988;7.856;2023-01-13T16:54:35;2.90;;;1.43;;
2712;SDS011;1366;47.988;7.856;2023-01-13T16:57:01;3.90;;;1.53;;
2712;SDS011;1366;47.988;7.856;2023-01-13T16:59:27;1.73;;;1.50;;
2712;SDS011;1366;47.988;7.856;2023-01-13T17:01:53;2.07;;;1.47;;
2712;SDS011;1366;47.988;7.856;2023-01-13T17:04:20;1.40;;;1.30;;
2712;SDS011;1366;47.988;7.856;2023-01-13T17:09:14;1.63;;;1.53;;
2712;SDS011;1366;47.988;7.856;2023-01-13T17:11:41;1.77;;;1.40;;
2712;SDS011;1366;47.988;7.856;2023-01-13T17:14:07;2.13;;;1.40;;
2712;SDS011;1366;47.988;7.856;2023-01-13T17:16:33;1.60;;;1.50;;
2712;SDS011;1366;47.988;7.856;2023-01-13T17:18:59;1.40;;;1.30;;
2712;SDS011;1366;47.988;7.856;2023-01-13T17:21:25;1.63;;;1.53;;
2712;SDS011;1366;47.988;7.856;2023-01-13T17:23:51;1.77;;;1.57;;
2712;SDS011;1366;47.988;7.856;2023-01-13T17:26:28;3.73;;;2.03;;
2712;SDS011;1366;47.988;7.856;2023-01-13T17:28:56;2.10;;;1.63;;
2712;SDS011;1366;47.988;7.856;2023-01-13T17:31:22;1.73;;;1.63;;
2712;SDS011;1366;47.988;7.856;2023-01-13T17:33:48;3.83;;;1.60;;
2712;SDS011;1366;47.988;7.856;2023-01-13T17:36:14;4.07;;;2.00;;
2712;SDS011;1366;47.988;7.856;2023-01-13T17:38:40;1.73;;;1.63;;
2712;SDS011;1366;47.988;7.856;2023-01-13T17:41:06;2.20;;;1.50;;
2712;SDS011;1366;47.988;7.856;2023-01-13T17:43:32;1.97;;;1.70;;
2712;SDS011;1366;47.988;7.856;2023-01-13T17:45:58;1.80;;;1.70;;
2712;SDS011;1366;47.988;7.856;2023-01-13T17:48:24;3.70;;;2.10;;
2712;SDS011;1366;47.988;7.856;2023-01-13T17:50:51;4.70;;;3.80;;
2712;SDS011;1366;47.988;7.856;2023-01-13T17:53:17;2.37;;;2.27;;
2712;SDS011;1366;47.988;7.856;2023-01-13T17:55:53;3.33;;;2.27;;
2712;SDS011;1366;47.988;7.856;2023-01-13T17:58:20;3.03;;;1.90;;
2712;SDS011;1366;47.988;7.856;2023-01-13T18:00:46;2.57;;;1.93;;
2712;SDS011;1366;47.988;7.856;2023-01-13T18:03:12;3.10;;;1.90;;
2712;SDS011;1366;47.988;7.856;2023-01-13T18:05:40;4.33;;;2.40;;
2712;SDS011;1366;47.988;7.856;2023-01-13T18:08:07;3.40;;;2.03;;
2712;SDS011;1366;47.988;7.856;2023-01-13T18:10:33;2.50;;;2.17;;
2712;SDS011;1366;47.988;7.856;2023-01-13T18:12:59;3.27;;;1.63;;
2712;SDS011;1366;47.988;7.856;2023-01-13T18:15:29;1.80;;;1.60;;
2712;SDS011;1366;47.988;7.856;2023-01-13T18:17:55;1.93;;;1.67;;
2712;SDS011;1366;47.988;7.856;2023-01-13T18:20:22;3.57;;;2.13;;
2712;SDS011;1366;47.988;7.856;2023-01-13T18:23:25;2.67;;;1.70;;
2712;SDS011;1366;47.988;7.856;2023-01-13T18:26:13;3.83;;;2.27;;
2712;SDS011;1366;47.988;7.856;2023-01-13T18:28:58;3.43;;;2.03;;
2712;SDS011;1366;47.988;7.856;2023-01-13T18:31:24;2.40;;;1.90;;
2712;SDS011;1366;47.988;7.856;2023-01-13T18:33:50;3.50;;;1.97;;
2712;SDS011;1366;47.988;7.856;2023-01-13T18:36:16;3.03;;;2.73;;
2712;SDS011;1366;47.988;7.856;2023-01-13T18:38:42;7.90;;;3.10;;
2712;SDS011;1366;47.988;7.856;2023-01-13T18:41:08;3.40;;;2.60;;
2712;SDS011;1366;47.988;7.856;2023-01-13T18:43:53;3.60;;;2.40;;
2712;SDS011;1366;47.988;7.856;2023-01-13T18:46:19;6.00;;;2.20;;
2712;SDS011;1366;47.988;7.856;2023-01-13T18:48:46;2.03;;;1.83;;
2712;SDS011;1366;47.988;7.856;2023-01-13T18:51:12;2.00;;;1.80;;
2712;SDS011;1366;47.988;7.856;2023-01-13T18:53:38;2.20;;;1.90;;
2712;SDS011;1366;47.988;7.856;2023-01-13T18:56:07;1.67;;;1.47;;
2712;SDS011;1366;47.988;7.856;2023-01-13T18:58:35;2.30;;;2.10;;
2712;SDS011;1366;47.988;7.856;2023-01-13T19:01:03;2.37;;;2.17;;
2712;SDS011;1366;47.988;7.856;2023-01-13T19:03:30;1.63;;;1.53;;
2712;SDS011;1366;47.988;7.856;2023-01-13T19:06:00;3.00;;;2.00;;
2712;SDS011;1366;47.988;7.856;2023-01-13T19:08:26;3.50;;;2.00;;
2712;SDS011;1366;47.988;7.856;2023-01-13T19:10:53;2.73;;;2.20;;
2712;SDS011;1366;47.988;7.856;2023-01-13T19:13:20;3.40;;;2.00;;
2712;SDS011;1366;47.988;7.856;2023-01-13T19:15:46;4.00;;;1.93;;
2712;SDS011;1366;47.988;7.856;2023-01-13T19:18:12;3.40;;;2.10;;
2712;SDS011;1366;47.988;7.856;2023-01-13T19:20:40;4.20;;;2.70;;
2712;SDS011;1366;47.988;7.856;2023-01-13T19:23:06;2.30;;;1.80;;
2712;SDS011;1366;47.988;7.856;2023-01-13T19:25:32;3.20;;;2.27;;
2712;SDS011;1366;47.988;7.856;2023-01-13T19:27:59;2.13;;;1.90;;
2712;SDS011;1366;47.988;7.856;2023-01-13T19:30:25;2.20;;;2.00;;
2712;SDS011;1366;47.988;7.856;2023-01-13T19:32:51;2.13;;;1.93;;
2712;SDS011;1366;47.988;7.856;2023-01-13T19:35:18;1.90;;;1.63;;
2712;SDS011;1366;47.988;7.856;2023-01-13T19:37:44;1.83;;;1.60;;
2712;SDS011;1366;47.988;7.856;2023-01-13T19:40:10;2.97;;;1.60;;
2712;SDS011;1366;47.988;7.856;2023-01-13T19:42:41;3.83;;;2.00;;
2712;SDS011;1366;47.988;7.856;2023-01-13T19:45:25;1.90;;;1.77;;
2712;SDS011;1366;47.988;7.856;2023-01-13T19:47:52;6.93;;;3.20;;
2712;SDS011;1366;47.988;7.856;2023-01-13T19:50:18;4.90;;;2.50;;
2712;SDS011;1366;47.988;7.856;2023-01-13T19:52:44;1.63;;;1.53;;
2712;SDS011;1366;47.988;7.856;2023-01-13T19:55:10;5.30;;;2.50;;
2712;SDS011;1366;47.988;7.856;2023-01-13T19:57:37;1.97;;;1.73;;
2712;SDS011;1366;47.988;7.856;2023-01-13T20:00:04;2.50;;;2.23;;
2712;SDS011;1366;47.988;7.856;2023-01-13T20:02:31;2.33;;;1.90;;
2712;SDS011;1366;47.988;7.856;2023-01-13T20:04:57;2.20;;;1.53;;
2712;SDS011;1366;47.988;7.856;2023-01-13T20:07:25;3.43;;;1.60;;
2712;SDS011;1366;47.988;7.856;2023-01-13T20:09:51;2.70;;;1.97;;
2712;SDS011;1366;47.988;7.856;2023-01-13T20:12:18;2.17;;;1.97;;
2712;SDS011;1366;47.988;7.856;2023-01-13T20:14:45;3.37;;;1.93;;
2712;SDS011;1366;47.988;7.856;2023-01-13T20:17:12;2.60;;;2.13;;
2712;SDS011;1366;47.988;7.856;2023-01-13T20:19:38;2.80;;;2.20;;
2712;SDS011;1366;47.988;7.856;2023-01-13T20:22:04;4.80;;;2.40;;
2712;SDS011;1366;47.988;7.856;2023-01-13T20:24:31;3.00;;;2.33;;
2712;SDS011;1366;47.988;7.856;2023-01-13T20:26:57;3.90;;;2.30;;
2712;SDS011;1366;47.988;7.856;2023-01-13T20:29:24;3.90;;;1.97;;
2712;SDS011;1366;47.988;7.856;2023-01-13T20:31:51;2.40;;;2.00;;
2712;SDS011;1366;47.988;7.856;2023-01-13T20:34:18;2.50;;;2.10;;
2712;SDS011;1366;47.988;7.856;2023-01-13T20:36:44;2.90;;;2.27;;
2712;SDS011;1366;47.988;7.856;2023-01-13T20:39:13;6.20;;;2.83;;
2712;SDS011;1366;47.988;7.856;2023-01-13T20:41:39;3.20;;;2.23;;
2712;SDS011;1366;47.988;7.856;2023-01-13T20:44:24;2.30;;;2.10;;
2712;SDS011;1366;47.988;7.856;2023-01-13T20:46:50;5.33;;;2.53;;
2712;SDS011;1366;47.988;7.856;2023-01-13T20:49:18;3.70;;;2.30;;
2712;SDS011;1366;47.988;7.856;2023-01-13T20:51:44;4.37;;;2.27;;
2712;SDS011;1366;47.988;7.856;2023-01-13T20:54:11;6.10;;;2.50;;
2712;SDS011;1366;47.988;7.856;2023-01-13T20:56:37;3.90;;;2.93;;
2712;SDS011;1366;47.988;7.856;2023-01-13T20:59:04;4.30;;;2.30;;
2712;SDS011;1366;47.988;7.856;2023-01-13T21:01:30;4.70;;;2.80;;
2712;SDS011;1366;47.988;7.856;2023-01-13T21:03:57;5.27;;;2.50;;
2712;SDS011;1366;47.988;7.856;2023-01-13T21:06:24;2.63;;;2.30;;
2712;SDS011;1366;47.988;7.856;2023-01-13T21:08:50;3.43;;;2.37;;
2712;SDS011;1366;47.988;7.856;2023-01-13T21:11:20;2.90;;;2.50;;
2712;SDS011;1366;47.988;7.856;2023-01-13T21:14:04;3.10;;;2.20;;
2712;SDS011;1366;47.988;7.856;2023-01-13T21:16:49;2.60;;;2.40;;
2712;SDS011;1366;47.988;7.856;2023-01-13T21:19:15;6.23;;;3.07;;
2712;SDS011;1366;47.988;7.856;2023-01-13T21:21:41;4.10;;;2.50;;
2712;SDS011;1366;47.988;7.856;2023-01-13T21:24:07;2.93;;;2.37;;
2712;SDS011;1366;47.988;7.856;2023-01-13T21:26:33;6.13;;;2.70;;
2712;SDS011;1366;47.988;7.856;2023-01-13T21:29:01;6.93;;;3.40;;
2712;SDS011;1366;47.988;7.856;2023-01-13T21:31:28;10.30;;;3.17;;
2712;SDS011;1366;47.988;7.856;2023-01-13T21:33:54;4.50;;;2.77;;
2712;SDS011;1366;47.988;7.856;2023-01-13T21:36:21;4.33;;;2.57;;
2712;SDS011;1366;47.988;7.856;2023-01-13T21:38:50;3.23;;;2.20;;
2712;SDS011;1366;47.988;7.856;2023-01-13T21:41:17;3.00;;;2.30;;
2712;SDS011;1366;47.988;7.856;2023-01-13T21:44:03;3.20;;;1.90;;
2712;SDS011;1366;47.988;7.856;2023-01-13T21:46:48;3.73;;;1.97;;
2712;SDS011;1366;47.988;7.856;2023-01-13T21:49:32;2.50;;;2.30;;
2712;SDS011;1366;47.988;7.856;2023-01-13T21:51:58;4.47;;;2.10;;
2712;SDS011;1366;47.988;7.856;2023-01-13T21:54:25;3.17;;;1.83;;
2712;SDS011;1366;47.988;7.856;2023-01-13T21:56:52;6.93;;;2.17;;
2712;SDS011;1366;47.988;7.856;2023-01-13T21:59:18;3.20;;;2.33;;
2712;SDS011;1366;47.988;7.856;2023-01-13T22:01:44;3.17;;;1.80;;
2712;SDS011;1366;47.988;7.856;2023-01-13T22:04:10;6.60;;;2.20;;
2712;SDS011;1366;47.988;7.856;2023-01-13T22:06:36;3.33;;;2.00;;
2712;SDS011;1366;47.988;7.856;2023-01-13T22:09:02;3.40;;;2.07;;
2712;SDS011;1366;47.988;7.856;2023-01-13T22:11:29;4.60;;;2.30;;
2712;SDS011;1366;47.988;7.856;2023-01-13T22:13:56;2.93;;;2.10;;
2712;SDS011;1366;47.988;7.856;2023-01-13T22:16:36;3.43;;;2.37;;
2712;SDS011;1366;47.988;7.856;2023-01-13T22:19:03;5.03;;;2.03;;